Time;durP1;ratioP1;P1;durP2;ratioP2;P2;SDS_P1;SDS_P2;PMS_P1;PMS_P2;Temp;Humidity;BMP_temperature;BMP_pressure;BME280_temperature;BME280_humidity;BME280_pressure;Samples;Min_cycle;Max_cycle;Signal;HPM_P1;HPM_P2
2023/01/02 00:00:11;;;;;;;17.40;6.00;;;;;;;7.92;85.77;100136.17;102413;1294;59714;-64
2023/01/02 00:03:23;;;;;;;15.40;5.80;;;;;;;7.92;86.09;100135.98;102382;1298;60850;-65
2023/01/02 00:06:13;;;;;;;17.00;6.10;;;;;;;7.92;86.17;100143.05;102388;1299;73797;-64
2023/01/02 00:09:04;;;;;;;14.80;5.80;;;;;;;7.93;86.27;100146.35;102343;1299;68655;-64
2023/01/02 00:11:52;;;;;;;14.80;5.50;;;;;;;7.94;86.05;100145.02;102372;1299;72618;-64
2023/01/02 00:14:40;;;;;;;14.60;5.60;;;;;;;7.96;86.10;100138.60;102469;1299;60889;-63
2023/01/02 00:17:31;;;;;;;14.00;4.90;;;;;;;7.97;86.11;100134.64;102548;1291;60834;-64
2023/01/02 00:20:19;;;;;;;15.50;5.40;;;;;;;7.97;86.01;100133.54;102198;1295;73925;-64
2023/01/02 00:23:08;;;;;;;13.60;5.10;;;;;;;7.98;86.02;100134.88;102352;1294;67920;-64
2023/01/02 00:25:58;;;;;;;14.30;4.80;;;;;;;7.99;85.85;100138.70;102200;1291;73611;-64
2023/01/02 00:28:46;;;;;;;14.90;5.00;;;;;;;8.00;86.05;100135.27;102391;1289;60346;-64
2023/01/02 00:31:36;;;;;;;12.00;4.50;;;;;;;8.01;86.00;100126.36;102494;1299;59670;-64
2023/01/02 00:34:25;;;;;;;12.70;5.00;;;;;;;8.01;86.02;100126.17;102191;1298;72996;-63
2023/01/02 00:37:14;;;;;;;13.70;5.00;;;;;;;8.02;85.87;100127.77;102437;1295;67752;-64
2023/01/02 00:40:04;;;;;;;13.10;4.60;;;;;;;8.02;86.15;100132.87;102415;1299;72482;-63
2023/01/02 00:42:52;;;;;;;14.70;4.10;;;;;;;8.02;86.05;100136.03;102423;1299;61055;-65
2023/01/02 00:45:42;;;;;;;10.90;3.50;;;;;;;8.04;86.01;100136.66;102399;1299;60066;-66
2023/01/02 00:48:30;;;;;;;10.00;4.00;;;;;;;8.04;85.76;100126.95;102394;1299;74098;-65
2023/01/02 00:51:19;;;;;;;13.40;4.30;;;;;;;8.02;86.21;100123.48;102502;1295;68919;-63
2023/01/02 00:54:08;;;;;;;12.30;4.50;;;;;;;8.00;85.96;100118.65;102278;1295;73464;-65
2023/01/02 00:56:56;;;;;;;14.00;4.80;;;;;;;7.97;86.35;100122.95;101716;1299;1002859;-64
2023/01/02 00:59:45;;;;;;;12.70;4.40;;;;;;;7.95;86.33;100132.27;102274;1299;61087;-65
2023/01/02 01:02:33;;;;;;;12.90;4.50;;;;;;;7.94;86.30;100127.95;102395;1297;74140;-65
2023/01/02 01:05:27;;;;;;;12.80;4.50;;;;;;;7.93;86.18;100118.80;102204;1291;68908;-65
2023/01/02 01:08:15;;;;;;;10.80;3.90;;;;;;;7.92;86.34;100116.02;102417;1294;72666;-64
2023/01/02 01:11:11;;;;;;;12.00;4.60;;;;;;;7.93;86.28;100118.77;102416;1299;59603;-64
2023/01/02 01:13:59;;;;;;;10.60;3.80;;;;;;;7.93;86.19;100112.41;102475;1295;61427;-63
2023/01/02 01:16:48;;;;;;;11.30;4.60;;;;;;;7.94;86.17;100109.52;102493;1295;72785;-63
2023/01/02 01:19:37;;;;;;;12.70;4.20;;;;;;;7.95;86.23;100105.22;101950;1294;1003720;-63
2023/01/02 01:22:25;;;;;;;12.40;3.70;;;;;;;7.96;86.03;100116.34;102418;1299;73674;-64
2023/01/02 01:25:13;;;;;;;13.30;3.90;;;;;;;7.96;86.20;100113.83;102202;1299;59692;-63
2023/01/02 01:28:02;;;;;;;13.80;4.40;;;;;;;7.95;86.21;100109.27;102395;1299;61471;-66
2023/01/02 01:30:50;;;;;;;12.30;3.80;;;;;;;7.95;86.35;100113.21;102466;1299;74065;-65
2023/01/02 01:33:43;;;;;;;13.20;4.20;;;;;;;7.93;86.35;100114.70;102620;1294;68187;-63
2023/01/02 01:36:31;;;;;;;10.50;3.40;;;;;;;7.92;86.66;100116.75;102595;1297;72423;-63
2023/01/02 01:39:22;;;;;;;10.70;4.00;;;;;;;7.89;86.96;100113.25;102330;1295;60130;-63
2023/01/02 01:42:15;;;;;;;11.30;3.80;;;;;;;7.88;87.06;100107.31;102351;1295;60170;-64
2023/01/02 01:45:11;;;;;;;12.30;4.20;;;;;;;7.87;86.87;100102.04;102484;1294;72907;-62
2023/01/02 01:48:00;;;;;;;9.70;3.70;;;;;;;7.87;87.02;100096.93;102457;1298;67831;-64
2023/01/02 01:50:48;;;;;;;9.20;3.60;;;;;;;7.87;86.93;100098.72;102473;1297;73286;-63
2023/01/02 01:53:37;;;;;;;10.30;3.60;;;;;;;7.85;86.93;100103.05;102181;1299;60399;-65
2023/01/02 01:56:26;;;;;;;11.40;3.70;;;;;;;7.85;86.97;100105.54;102488;1294;60158;-64
2023/01/02 01:59:16;;;;;;;11.50;3.80;;;;;;;7.88;87.11;100097.77;102442;1291;73917;-64
2023/01/02 02:02:05;;;;;;;11.80;3.90;;;;;;;7.89;86.86;100093.27;102406;1291;67807;-63
2023/01/02 02:04:56;;;;;;;10.60;3.80;;;;;;;7.91;86.70;100094.57;102426;1296;73649;-63
2023/01/02 02:07:58;;;;;;;12.80;4.20;;;;;;;7.92;86.78;100099.63;102404;1299;59639;-63
2023/01/02 02:10:48;;;;;;;11.00;4.60;;;;;;;7.88;86.95;100112.23;102443;1299;59787;-64
2023/01/02 02:13:36;;;;;;;11.60;4.40;;;;;;;7.85;87.36;100112.58;102320;1297;73113;-64
2023/01/02 02:16:44;;;;;;;11.90;4.60;;;;;;;7.83;87.26;100113.92;102568;1298;67820;-62
2023/01/02 02:19:47;;;;;;;14.10;5.30;;;;;;;7.80;87.69;100108.50;102497;1294;71726;-63
2023/01/02 02:23:09;;;;;;;12.00;4.50;;;;;;;7.78;88.03;100108.13;102413;1295;59731;-63
2023/01/02 02:26:38;;;;;;;12.70;4.80;;;;;;;7.77;88.05;100099.02;102419;1297;59777;-63
2023/01/02 02:29:45;;;;;;;12.10;4.20;;;;;;;7.76;88.28;100100.50;102619;1298;73004;-64
2023/01/02 02:33:30;;;;;;;16.10;5.10;;;;;;;7.78;87.99;100100.33;102306;1289;367752;-64
2023/01/02 02:36:33;;;;;;;13.60;5.00;;;;;;;7.80;88.30;100100.02;101943;1302;73643;-65
2023/01/02 02:39:32;;;;;;;8.80;3.50;;;;;;;7.80;88.60;100100.38;101799;1302;59790;-65
2023/01/02 02:43:03;;;;;;;11.20;3.60;;;;;;;7.80;88.53;100093.45;101913;1302;60341;-64
2023/01/02 02:46:00;;;;;;;11.90;3.70;;;;;;;7.81;88.92;100093.95;101978;1303;74128;-64
2023/01/02 02:49:18;;;;;;;12.80;3.90;;;;;;;7.80;89.10;100089.58;101942;1297;66702;-64
2023/01/02 02:52:25;;;;;;;13.70;3.90;;;;;;;7.81;89.03;100083.02;101726;1303;73736;-63
2023/01/02 02:55:14;;;;;;;11.30;3.60;;;;;;;7.84;89.28;100076.99;101888;1302;59869;-64
2023/01/02 02:58:04;;;;;;;11.60;3.50;;;;;;;7.83;89.54;100069.58;101908;1302;59642;-62
2023/01/02 03:01:10;;;;;;;9.00;3.50;;;;;;;7.83;89.74;100069.96;101914;1304;73849;-63
2023/01/02 03:03:59;;;;;;;9.10;3.40;;;;;;;7.81;90.27;100063.74;101857;1304;67821;-63
2023/01/02 03:06:56;;;;;;;9.80;3.30;;;;;;;7.77;90.91;100067.59;101900;1303;73726;-65
2023/01/02 03:10:13;;;;;;;12.10;3.30;;;;;;;7.72;91.78;100065.21;101683;1303;61381;-63
2023/01/02 03:13:42;;;;;;;11.70;3.90;;;;;;;7.69;92.25;100066.86;102168;1299;60417;-64
2023/01/02 03:16:38;;;;;;;11.30;3.80;;;;;;;7.67;92.74;100066.29;102655;1295;73352;-65
2023/01/02 03:19:37;;;;;;;11.10;4.00;;;;;;;7.66;92.75;100066.88;102451;1295;67837;-63
2023/01/02 03:22:35;;;;;;;14.00;4.20;;;;;;;7.65;93.05;100062.52;102523;1291;73778;-63
2023/01/02 03:25:23;;;;;;;10.00;3.60;;;;;;;7.64;93.28;100060.78;102384;1294;59752;-64
2023/01/02 03:28:18;;;;;;;11.70;3.90;;;;;;;7.64;93.57;100057.95;102478;1299;61046;-62
2023/01/02 03:31:13;;;;;;;12.80;4.20;;;;;;;7.65;93.50;100057.04;102638;1297;73040;-63
2023/01/02 03:34:13;;;;;;;12.50;5.00;;;;;;;7.66;93.52;100061.73;102446;1289;67570;-64
2023/01/02 03:37:08;;;;;;;12.50;4.10;;;;;;;7.66;93.69;100055.91;102361;1299;71475;-65
2023/01/02 03:40:05;;;;;;;12.60;3.80;;;;;;;7.66;93.58;100058.23;102377;1299;59756;-64
2023/01/02 03:43:11;;;;;;;12.20;3.70;;;;;;;7.66;93.50;100053.98;102202;1289;60321;-63
2023/01/02 03:46:21;;;;;;;9.90;3.50;;;;;;;7.66;93.84;100048.66;102566;1295;73045;-65
2023/01/02 03:49:25;;;;;;;12.70;4.20;;;;;;;7.67;94.01;100039.08;102392;1295;68898;-65
2023/01/02 03:52:14;;;;;;;11.40;3.50;;;;;;;7.69;93.86;100039.84;102195;1291;72669;-64
2023/01/02 03:55:08;;;;;;;14.30;4.10;;;;;;;7.69;93.69;100031.70;102345;1292;60691;-63
2023/01/02 03:58:26;;;;;;;11.40;3.50;;;;;;;7.69;93.83;100026.92;102341;1299;60306;-62
2023/01/02 04:01:44;;;;;;;10.80;3.70;;;;;;;7.69;93.82;100025.32;102170;1297;73069;-61
2023/01/02 04:04:41;;;;;;;10.60;3.80;;;;;;;7.67;94.25;100022.83;102385;1292;67991;-63
2023/01/02 04:08:00;;;;;;;14.70;4.00;;;;;;;7.64;94.81;100013.98;102475;1299;73372;-63
2023/01/02 04:10:51;;;;;;;13.40;3.50;;;;;;;7.63;94.89;100011.05;102344;1289;59664;-63
2023/01/02 04:13:54;;;;;;;12.10;3.20;;;;;;;7.62;95.26;100001.93;102562;1291;60236;-64
2023/01/02 04:16:45;;;;;;;11.50;3.90;;;;;;;7.61;95.69;100001.12;102570;1289;74092;-63
2023/01/02 04:19:49;;;;;;;9.30;3.40;;;;;;;7.58;95.91;100000.09;102379;1297;67968;-63
2023/01/02 04:22:49;;;;;;;11.20;3.50;;;;;;;7.56;96.44;100000.75;102367;1299;73442;-63
2023/01/02 04:25:55;;;;;;;10.90;3.50;;;;;;;7.55;96.81;100004.05;102415;1298;59741;-63
2023/01/02 04:28:44;;;;;;;10.00;3.40;;;;;;;7.54;96.83;100001.80;102405;1294;60972;-65
2023/01/02 04:31:41;;;;;;;9.10;3.10;;;;;;;7.53;97.51;99994.96;102360;1292;72996;-62
2023/01/02 04:34:35;;;;;;;10.90;3.70;;;;;;;7.52;97.29;99994.65;102168;1294;67569;-62
2023/01/02 04:37:49;;;;;;;12.30;3.70;;;;;;;7.53;97.60;99994.44;102511;1296;73256;-62
2023/01/02 04:40:40;;;;;;;9.10;3.70;;;;;;;7.54;97.51;100002.86;102373;1290;59661;-62
2023/01/02 04:43:29;;;;;;;12.10;3.60;;;;;;;7.54;97.53;99997.89;102460;1297;60073;-63
2023/01/02 04:46:21;;;;;;;10.20;3.60;;;;;;;7.54;97.62;99987.48;102375;1289;72062;-63
2023/01/02 04:49:10;;;;;;;12.50;3.40;;;;;;;7.56;97.46;99977.64;102517;1299;68864;-64
2023/01/02 04:51:58;;;;;;;11.20;3.40;;;;;;;7.57;97.52;99975.96;102368;1288;73728;-64
2023/01/02 04:54:46;;;;;;;11.10;3.60;;;;;;;7.58;97.85;99976.05;102224;1295;60618;-63
2023/01/02 04:57:37;;;;;;;13.10;4.10;;;;;;;7.58;98.28;99973.59;102184;1299;60370;-63
2023/01/02 05:00:25;;;;;;;13.90;3.50;;;;;;;7.58;98.08;99965.30;102340;1290;73981;-62
2023/01/02 05:03:16;;;;;;;15.40;4.50;;;;;;;7.58;97.95;99959.83;102413;1291;67528;-62
2023/01/02 05:06:05;;;;;;;12.20;3.50;;;;;;;7.59;98.13;99951.14;102166;1297;73397;-64
2023/01/02 05:08:53;;;;;;;11.00;3.50;;;;;;;7.60;98.12;99948.77;102425;1299;59720;-63
2023/01/02 05:11:44;;;;;;;12.80;3.90;;;;;;;7.61;98.00;99940.38;102597;1289;61812;-63
2023/01/02 05:14:35;;;;;;;11.60;4.50;;;;;;;7.64;98.02;99940.91;102125;1295;72090;-62
2023/01/02 05:17:23;;;;;;;11.40;4.60;;;;;;;7.67;97.89;99935.04;102445;1291;67985;-63
2023/01/02 05:20:12;;;;;;;9.70;4.00;;;;;;;7.71;97.84;99930.15;102360;1289;73531;-61
2023/01/02 05:26:11;;;;;;;14.90;5.10;;;;;;;7.77;97.88;99922.16;102436;1299;61329;-65
2023/01/02 05:29:00;;;;;;;14.30;5.80;;;;;;;7.77;98.03;99909.48;102527;1290;74531;-64
2023/01/02 05:31:49;;;;;;;18.00;5.90;;;;;;;7.76;98.30;99911.84;102363;1291;67801;-63
2023/01/02 05:34:37;;;;;;;13.20;5.10;;;;;;;7.75;98.54;99904.30;102256;1299;72658;-64
2023/01/02 05:37:25;;;;;;;14.70;5.30;;;;;;;7.75;98.69;99893.87;102328;1297;60824;-65
2023/01/02 05:40:14;;;;;;;13.90;5.10;;;;;;;7.76;99.18;99895.26;102509;1298;60156;-66
2023/01/02 05:43:02;;;;;;;15.30;5.30;;;;;;;7.76;99.10;99893.98;102466;1299;73944;-64
2023/01/02 05:45:51;;;;;;;12.20;4.40;;;;;;;7.77;99.22;99892.67;102530;1291;67418;-65
2023/01/02 05:48:40;;;;;;;14.00;4.50;;;;;;;7.77;99.43;99884.39;102638;1291;72441;-65
2023/01/02 05:51:31;;;;;;;11.60;4.40;;;;;;;7.77;99.61;99874.30;102635;1291;59610;-66
2023/01/02 05:54:19;;;;;;;12.10;4.20;;;;;;;7.77;99.60;99876.48;102176;1291;59607;-64
2023/01/02 05:57:08;;;;;;;14.40;5.50;;;;;;;7.76;99.73;99875.96;102382;1295;74118;-64
2023/01/02 05:59:56;;;;;;;15.90;5.70;;;;;;;7.77;99.93;99873.82;102455;1289;68808;-63
2023/01/02 06:02:44;;;;;;;12.10;4.80;;;;;;;7.78;100.00;99867.92;102344;1297;71297;-63
2023/01/02 06:05:36;;;;;;;13.80;5.00;;;;;;;7.79;99.99;99859.50;102594;1297;59668;-63
2023/01/02 06:08:24;;;;;;;11.50;4.50;;;;;;;7.82;99.99;99858.06;102193;1291;59696;-65
2023/01/02 06:11:13;;;;;;;13.10;3.90;;;;;;;7.85;100.00;99856.83;102384;1299;73582;-63
2023/01/02 06:14:02;;;;;;;13.40;4.40;;;;;;;7.89;100.00;99857.09;102378;1291;66942;-63
2023/01/02 06:16:50;;;;;;;13.30;4.40;;;;;;;7.92;100.00;99848.55;102405;1299;73008;-63
2023/01/02 06:19:38;;;;;;;11.70;3.90;;;;;;;7.95;100.00;99842.89;102395;1291;59590;-63
2023/01/02 06:22:29;;;;;;;12.60;4.20;;;;;;;7.96;100.00;99834.34;102399;1297;61195;-62
2023/01/02 06:25:18;;;;;;;14.40;4.40;;;;;;;7.99;100.00;99833.39;102411;1297;73380;-67
2023/01/02 06:28:06;;;;;;;13.80;4.60;;;;;;;8.03;100.00;99834.75;102393;1291;67885;-64
2023/01/02 06:31:11;;;;;;;11.40;4.10;;;;;;;8.06;100.00;99826.73;102184;1289;73560;-63
2023/01/02 06:34:02;;;;;;;12.30;4.90;;;;;;;8.09;100.00;99826.19;102397;1299;60606;-65
2023/01/02 06:36:51;;;;;;;11.40;4.00;;;;;;;8.11;100.00;99820.70;102436;1292;60350;-66
2023/01/02 06:39:40;;;;;;;14.60;4.80;;;;;;;8.15;100.00;99821.50;102315;1299;73950;-67
2023/01/02 06:42:28;;;;;;;11.00;4.20;;;;;;;8.17;100.00;99820.27;102532;1292;68607;-65
2023/01/02 06:45:22;;;;;;;12.50;4.20;;;;;;;8.19;100.00;99817.83;102119;1298;73127;-67
2023/01/02 06:48:10;;;;;;;11.70;4.30;;;;;;;8.24;100.00;99813.33;102197;1288;59681;-65
2023/01/02 06:50:59;;;;;;;11.70;4.10;;;;;;;8.26;100.00;99809.58;102218;1294;61371;-66
2023/01/02 06:53:49;;;;;;;13.60;4.10;;;;;;;8.30;100.00;99810.16;102474;1291;74093;-65
2023/01/02 06:56:37;;;;;;;13.90;4.70;;;;;;;8.34;100.00;99802.10;102504;1297;67774;-65
2023/01/02 06:59:26;;;;;;;13.10;5.00;;;;;;;8.36;100.00;99802.83;102406;1299;72644;-66
2023/01/02 07:02:14;;;;;;;12.70;4.30;;;;;;;8.39;100.00;99795.73;102458;1281;59671;-65
2023/01/02 07:05:03;;;;;;;10.60;4.60;;;;;;;8.41;100.00;99789.97;102478;1299;60333;-64
2023/01/02 07:07:52;;;;;;;15.20;4.20;;;;;;;8.41;100.00;99783.59;102361;1299;72725;-65
2023/01/02 07:10:40;;;;;;;18.10;4.90;;;;;;;8.40;100.00;99784.52;102349;1286;67523;-67
2023/01/02 07:13:28;;;;;;;15.20;5.20;;;;;;;8.40;100.00;99779.95;102486;1297;73717;-67
2023/01/02 07:16:19;;;;;;;15.00;4.90;;;;;;;8.40;100.00;99770.06;102393;1289;59653;-66
2023/01/02 07:19:08;;;;;;;15.90;5.30;;;;;;;8.39;100.00;99772.23;102255;1282;60321;-69
2023/01/02 07:21:56;;;;;;;13.40;5.20;;;;;;;8.38;100.00;99768.08;102342;1291;73812;-65
2023/01/02 07:24:45;;;;;;;15.10;6.00;;;;;;;8.38;100.00;99759.23;102405;1296;66627;-64
2023/01/02 07:27:34;;;;;;;12.90;5.20;;;;;;;8.37;100.00;99746.55;102339;1291;73366;-67
2023/01/02 07:30:22;;;;;;;15.50;5.10;;;;;;;8.38;100.00;99737.11;102155;1299;60443;-65
2023/01/02 07:33:12;;;;;;;13.10;5.10;;;;;;;8.40;100.00;99737.19;102174;1295;61374;-66
2023/01/02 07:36:08;;;;;;;12.20;4.60;;;;;;;8.42;100.00;99733.13;102450;1292;74284;-66
2023/01/02 07:38:57;;;;;;;10.90;4.50;;;;;;;8.46;100.00;99732.00;102172;1297;68889;-65
2023/01/02 07:41:48;;;;;;;11.70;5.20;;;;;;;8.48;100.00;99735.19;102390;1298;73527;-67
2023/01/02 07:44:38;;;;;;;14.60;5.40;;;;;;;8.51;100.00;99735.98;102412;1297;60394;-65
2023/01/02 07:47:27;;;;;;;12.20;4.80;;;;;;;8.56;100.00;99741.38;102326;1299;61335;-64
2023/01/02 07:50:16;;;;;;;17.30;6.60;;;;;;;8.59;100.00;99748.17;102322;1295;74093;-67
2023/01/02 07:53:04;;;;;;;15.90;5.70;;;;;;;8.62;100.00;99747.59;102143;1297;66655;-65
2023/01/02 07:55:55;;;;;;;14.60;6.20;;;;;;;8.64;100.00;99741.62;102050;1299;72153;-65
2023/01/02 07:58:44;;;;;;;15.40;6.10;;;;;;;8.64;100.00;99730.25;102486;1297;60565;-66
2023/01/02 08:01:32;;;;;;;16.10;7.80;;;;;;;8.66;100.00;99722.68;102170;1289;60119;-68
2023/01/02 08:04:21;;;;;;;18.80;7.40;;;;;;;8.68;100.00;99722.55;102129;1291;74217;-67
2023/01/02 08:07:09;;;;;;;16.30;7.10;;;;;;;8.67;100.00;99720.51;102383;1299;68670;-66
2023/01/02 08:09:58;;;;;;;17.30;7.60;;;;;;;8.65;100.00;99718.69;102385;1299;73149;-66
2023/01/02 08:12:46;;;;;;;17.50;7.60;;;;;;;8.65;100.00;99716.25;102448;1295;60741;-68
2023/01/02 08:15:34;;;;;;;19.60;8.70;;;;;;;8.64;100.00;99709.41;102347;1289;61394;-70
2023/01/02 08:18:22;;;;;;;17.40;8.20;;;;;;;8.63;100.00;99709.66;102466;1289;73383;-70
2023/01/02 08:21:11;;;;;;;19.80;9.60;;;;;;;8.62;100.00;99707.30;102131;1291;67663;-68
2023/01/02 08:23:59;;;;;;;19.10;9.40;;;;;;;8.62;100.00;99701.43;102366;1297;72657;-72
2023/01/02 08:26:48;;;;;;;21.40;9.80;;;;;;;8.61;100.00;99703.14;102324;1291;60329;-66
2023/01/02 08:29:36;;;;;;;20.50;9.90;;;;;;;8.57;100.00;99695.29;102533;1298;61245;-65
2023/01/02 08:32:25;;;;;;;20.30;9.60;;;;;;;8.60;100.00;99701.57;102590;1289;73814;-66
2023/01/02 08:35:13;;;;;;;23.30;10.40;;;;;;;8.59;100.00;99695.98;102399;1299;67583;-65
2023/01/02 08:38:01;;;;;;;23.10;10.50;;;;;;;8.59;100.00;99689.77;102304;1297;73733;-66
2023/01/02 08:40:50;;;;;;;22.40;10.70;;;;;;;8.60;100.00;99681.45;102365;1288;59650;-67
2023/01/02 08:43:38;;;;;;;23.80;11.90;;;;;;;8.56;100.00;99674.80;102358;1289;60313;-65
2023/01/02 08:46:27;;;;;;;24.50;11.90;;;;;;;8.60;100.00;99678.10;102480;1297;73788;-66
2023/01/02 08:49:15;;;;;;;19.20;10.20;;;;;;;8.60;100.00;99676.32;102169;1297;67853;-65
2023/01/02 08:52:04;;;;;;;27.20;11.50;;;;;;;8.61;100.00;99670.40;102336;1295;73662;-65
2023/01/02 08:54:52;;;;;;;23.20;11.30;;;;;;;8.62;100.00;99677.22;102337;1297;59723;-67
2023/01/02 08:57:41;;;;;;;24.20;10.50;;;;;;;8.61;100.00;99671.27;102540;1294;60599;-66
2023/01/02 09:00:29;;;;;;;26.20;12.20;;;;;;;8.61;100.00;99669.52;102354;1298;72073;-66
2023/01/02 09:03:18;;;;;;;24.40;11.10;;;;;;;8.60;100.00;99654.70;102417;1294;67763;-65
2023/01/02 09:06:07;;;;;;;23.10;11.00;;;;;;;8.61;100.00;99655.23;102342;1290;73689;-65
2023/01/02 09:08:58;;;;;;;23.60;11.70;;;;;;;8.62;100.00;99655.66;102357;1290;60859;-65
2023/01/02 09:11:50;;;;;;;25.50;12.20;;;;;;;8.64;100.00;99663.27;102485;1297;60076;-63
2023/01/02 09:14:39;;;;;;;25.60;11.80;;;;;;;8.67;100.00;99662.48;102384;1299;73708;-66
2023/01/02 09:17:27;;;;;;;27.50;12.50;;;;;;;8.75;100.00;99655.36;102440;1289;68589;-64
2023/01/02 09:20:15;;;;;;;24.10;11.50;;;;;;;8.82;100.00;99651.10;102326;1290;73835;-65
2023/01/02 09:23:04;;;;;;;23.30;11.30;;;;;;;8.85;100.00;99651.58;102392;1291;60026;-64
2023/01/02 09:25:58;;;;;;;21.10;10.20;;;;;;;8.89;100.00;99649.90;102524;1297;60160;-64
2023/01/02 09:28:46;;;;;;;23.50;11.30;;;;;;;8.90;100.00;99650.48;102426;1299;74136;-64
2023/01/02 09:31:35;;;;;;;27.60;12.40;;;;;;;8.95;100.00;99639.49;102361;1298;68609;-65
2023/01/02 09:34:23;;;;;;;24.70;11.20;;;;;;;9.05;100.00;99634.98;102351;1297;72616;-65
2023/01/02 09:37:12;;;;;;;24.50;11.00;;;;;;;9.18;100.00;99630.62;102153;1295;60377;-66
2023/01/02 09:40:00;;;;;;;29.60;12.40;;;;;;;9.35;100.00;99622.58;102388;1299;60120;-64
2023/01/02 09:42:51;;;;;;;21.20;11.30;;;;;;;9.44;100.00;99621.48;102319;1291;72078;-65
2023/01/02 09:45:43;;;;;;;22.40;10.90;;;;;;;9.48;100.00;99616.73;102371;1295;66867;-64
2023/01/02 09:48:35;;;;;;;24.10;10.80;;;;;;;9.50;100.00;99610.05;102330;1289;73163;-66
2023/01/02 09:51:25;;;;;;;22.30;11.00;;;;;;;9.48;100.00;99609.96;102467;1299;60618;-66
2023/01/02 09:54:32;;;;;;;24.20;12.20;;;;;;;9.53;100.00;99605.38;102202;1291;59667;-64
2023/01/02 09:57:51;;;;;;;26.80;11.50;;;;;;;9.54;100.00;99598.90;102190;1291;74066;-67
2023/01/02 10:00:43;;;;;;;23.80;10.90;;;;;;;9.48;100.00;99598.31;102382;1299;68477;-65
2023/01/02 10:03:53;;;;;;;22.70;11.10;;;;;;;9.45;100.00;99599.60;102151;1299;73769;-66
2023/01/02 10:07:03;;;;;;;20.70;11.10;;;;;;;9.42;100.00;99590.27;102578;1297;60576;-68
2023/01/02 10:10:09;;;;;;;22.30;10.70;;;;;;;9.44;100.00;99589.14;102380;1292;61218;-65
2023/01/02 10:13:41;;;;;;;21.90;10.20;;;;;;;9.46;100.00;99588.41;102425;1299;74109;-66
2023/01/02 10:16:55;;;;;;;23.60;10.40;;;;;;;9.45;100.00;99590.42;102524;1297;67159;-67
2023/01/02 10:20:15;;;;;;;24.70;10.70;;;;;;;9.43;99.99;99584.41;102308;1299;73493;-66
2023/01/02 10:23:21;;;;;;;25.40;10.80;;;;;;;9.45;100.00;99579.44;102354;1292;60726;-67
2023/01/02 10:26:23;;;;;;;21.10;10.40;;;;;;;9.45;100.00;99579.94;102340;1290;61339;-67
2023/01/02 10:29:12;;;;;;;23.40;10.40;;;;;;;9.43;99.91;99572.17;102368;1297;73405;-66
2023/01/02 10:32:11;;;;;;;23.90;9.90;;;;;;;9.44;99.74;99569.83;102445;1294;67598;-66
2023/01/02 10:35:36;;;;;;;22.90;9.90;;;;;;;9.54;99.49;99565.96;102286;1291;73720;-66
2023/01/02 10:38:37;;;;;;;24.90;10.20;;;;;;;9.71;98.72;99553.80;102344;1289;59653;-65
2023/01/02 10:41:28;;;;;;;21.40;10.90;;;;;;;9.81;97.84;99534.36;102311;1289;61306;-66
2023/01/02 10:44:32;;;;;;;24.50;11.60;;;;;;;9.82;96.68;99525.92;102512;1283;74082;-65
2023/01/02 10:47:38;;;;;;;21.80;10.70;;;;;;;9.85;96.40;99532.98;102381;1299;69194;-64
2023/01/02 10:50:47;;;;;;;24.40;10.50;;;;;;;9.90;95.38;99530.41;102054;1292;73813;-66
2023/01/02 10:53:36;;;;;;;24.60;11.20;;;;;;;10.00;94.33;99534.91;102326;1295;60807;-65
2023/01/02 10:56:24;;;;;;;20.50;10.00;;;;;;;10.07;94.42;99537.52;102100;1297;60285;-64
2023/01/02 10:59:22;;;;;;;21.90;10.30;;;;;;;10.14;93.86;99542.40;102456;1299;74192;-63
2023/01/02 11:03:00;;;;;;;20.80;9.40;;;;;;;10.18;92.91;99531.44;102139;1291;67802;-65
2023/01/02 11:05:53;;;;;;;23.80;10.30;;;;;;;10.16;92.24;99525.77;102366;1299;73358;-64
2023/01/02 11:08:41;;;;;;;17.30;8.10;;;;;;;10.29;92.03;99534.11;102081;1297;59649;-66
2023/01/02 11:11:32;;;;;;;21.50;9.60;;;;;;;10.34;91.07;99532.08;102571;1295;60823;-65
2023/01/02 11:14:30;;;;;;;21.60;9.40;;;;;;;10.35;90.97;99529.15;102404;1299;73493;-66
2023/01/02 11:17:22;;;;;;;23.20;9.50;;;;;;;10.38;90.09;99521.11;102765;1299;68610;-66
2023/01/02 11:20:29;;;;;;;20.70;9.00;;;;;;;10.50;89.87;99521.28;102378;1294;72798;-64
2023/01/02 11:23:22;;;;;;;21.50;9.00;;;;;;;10.75;89.27;99518.99;102607;1299;59654;-64
2023/01/02 11:26:21;;;;;;;19.60;8.70;;;;;;;10.90;88.12;99518.73;102356;1291;61056;-66
2023/01/02 11:29:25;;;;;;;22.00;9.60;;;;;;;10.88;87.39;99519.07;102369;1292;73943;-64
2023/01/02 11:32:36;;;;;;;19.70;9.20;;;;;;;10.80;87.23;99514.14;102284;1295;67187;-66
2023/01/02 11:35:46;;;;;;;19.60;8.50;;;;;;;10.74;87.19;99506.17;102383;1299;73715;-65
2023/01/02 11:38:46;;;;;;;19.00;8.20;;;;;;;10.83;87.32;99506.61;102474;1294;60598;-64
2023/01/02 11:45:25;;;;;;;17.80;7.60;;;;;;;10.90;86.18;99495.34;101637;1297;73842;-67
2023/01/02 11:48:20;;;;;;;19.10;8.80;;;;;;;10.96;85.93;99486.30;102006;1304;68816;-67
2023/01/02 11:51:17;;;;;;;17.80;8.10;;;;;;;10.95;85.51;99485.32;101864;1305;73100;-68
2023/01/02 11:54:22;;;;;;;18.50;8.40;;;;;;;10.94;85.74;99495.04;101585;1304;59718;-66
2023/01/02 11:58:03;;;;;;;21.70;9.00;;;;;;;10.89;85.16;99487.81;101849;1297;60309;-66
2023/01/02 12:01:01;;;;;;;19.90;8.60;;;;;;;10.89;85.54;99491.36;101821;1304;73831;-65
2023/01/02 12:03:50;;;;;;;18.00;8.20;;;;;;;10.89;85.53;99490.23;101923;1304;67890;-64
2023/01/02 12:06:58;;;;;;;18.50;7.20;;;;;;;10.93;85.53;99482.02;101764;1305;73500;-65
2023/01/02 12:10:10;;;;;;;18.00;8.60;;;;;;;10.92;85.22;99471.95;101560;1303;60378;-67
2023/01/02 12:13:13;;;;;;;22.00;7.90;;;;;;;10.87;85.14;99463.48;101879;1297;61302;-66
2023/01/02 12:16:05;;;;;;;15.90;7.50;;;;;;;10.90;85.57;99461.83;101813;1304;72738;-64
2023/01/02 12:19:28;;;;;;;20.30;8.60;;;;;;;10.89;85.11;99465.05;102075;1298;68857;-68
2023/01/02 12:22:55;;;;;;;18.00;7.40;;;;;;;10.88;85.42;99467.61;102487;1297;73170;-65
2023/01/02 12:25:53;;;;;;;20.30;7.90;;;;;;;10.89;85.05;99460.46;102619;1289;59949;-65
2023/01/02 12:28:55;;;;;;;21.30;8.40;;;;;;;10.92;84.66;99454.59;102503;1290;60357;-67
2023/01/02 12:32:40;;;;;;;16.80;8.00;;;;;;;10.90;84.41;99449.41;102444;1294;73722;-65
2023/01/02 12:36:08;;;;;;;18.70;7.70;;;;;;;10.86;84.27;99451.54;102391;1299;67905;-64
2023/01/02 12:39:21;;;;;;;17.20;7.80;;;;;;;10.76;84.67;99446.06;102109;1297;72876;-64
2023/01/02 12:42:28;;;;;;;17.80;7.50;;;;;;;10.73;84.96;99436.18;102032;1300;60584;-65
2023/01/02 12:45:36;;;;;;;18.10;8.20;;;;;;;10.72;84.97;99438.21;101758;1301;60169;-68
2023/01/02 12:48:45;;;;;;;18.60;7.80;;;;;;;10.71;85.16;99427.60;101783;1302;72307;-65
2023/01/02 12:51:40;;;;;;;17.70;7.70;;;;;;;10.71;85.00;99423.56;101777;1297;68037;-67
2023/01/02 12:54:53;;;;;;;19.00;8.20;;;;;;;10.68;85.04;99429.64;101879;1298;72681;-67
2023/01/02 12:57:41;;;;;;;15.80;7.60;;;;;;;10.65;85.42;99436.52;102002;1302;59669;-66
2023/01/02 13:01:07;;;;;;;20.00;7.70;;;;;;;10.63;85.55;99436.84;101736;1305;59955;-66
2023/01/02 13:04:17;;;;;;;17.00;7.80;;;;;;;10.62;85.29;99433.26;101876;1301;72297;-67
2023/01/02 13:07:45;;;;;;;19.80;7.40;;;;;;;10.62;85.57;99433.92;101948;1297;67890;-64
2023/01/02 13:10:34;;;;;;;16.20;6.90;;;;;;;10.64;85.50;99442.08;101259;1310;72432;-68
2023/01/02 13:13:30;;;;;;;19.20;7.70;;;;;;;10.65;85.13;99442.84;101225;1310;59914;-65
2023/01/02 13:16:18;;;;;;;16.30;6.90;;;;;;;10.66;85.04;99429.30;101542;1304;59770;-66
2023/01/02 13:20:00;;;;;;;16.90;7.00;;;;;;;10.70;84.56;99430.89;101724;1304;74145;-65
2023/01/02 13:23:07;;;;;;;17.90;7.00;;;;;;;10.74;84.95;99432.34;101248;1312;68670;-64
2023/01/02 13:26:08;;;;;;;14.10;6.10;;;;;;;10.75;84.37;99431.56;101032;1313;72509;-68
2023/01/02 13:29:17;;;;;;;20.40;6.60;;;;;;;10.78;84.10;99430.44;101149;1309;59697;-66
2023/01/02 13:32:05;;;;;;;16.00;6.80;;;;;;;10.82;84.19;99426.98;101226;1310;61417;-66
2023/01/02 13:34:57;;;;;;;17.50;7.00;;;;;;;10.81;83.98;99417.54;100961;1312;73789;-65